sensor_id;sensor_type;location;lat;lon;timestamp;P1;durP1;ratioP1;P2;durP2;ratioP2
67162;SDS011;54092;53.088;8.850;2023-08-30T00:02:04;10.00;;;4.88;;
67162;SDS011;54092;53.088;8.850;2023-08-30T00:04:30;7.35;;;4.50;;
67162;SDS011;54092;53.088;8.850;2023-08-30T00:06:55;8.18;;;4.65;;
67162;SDS011;54092;53.088;8.850;2023-08-30T00:09:21;7.85;;;4.85;;
67162;SDS011;54092;53.088;8.850;2023-08-30T00:11:46;7.00;;;4.57;;
67162;SDS011;54092;53.088;8.850;2023-08-30T00:14:12;7.78;;;4.35;;
67162;SDS011;54092;53.088;8.850;2023-08-30T00:16:37;9.85;;;4.70;;
67162;SDS011;54092;53.088;8.850;2023-08-30T00:19:03;8.88;;;5.15;;
67162;SDS011;54092;53.088;8.850;2023-08-30T00:21:29;8.32;;;5.00;;
67162;SDS011;54092;53.088;8.850;2023-08-30T00:23:55;7.90;;;4.22;;
67162;SDS011;54092;53.088;8.850;2023-08-30T00:26:20;10.85;;;4.82;;
67162;SDS011;54092;53.088;8.850;2023-08-30T00:28:46;8.23;;;5.40;;
67162;SDS011;54092;53.088;8.850;2023-08-30T00:31:11;8.60;;;5.45;;
67162;SDS011;54092;53.088;8.850;2023-08-30T00:33:36;8.68;;;4.93;;
67162;SDS011;54092;53.088;8.850;2023-08-30T00:36:02;8.77;;;5.28;;
67162;SDS011;54092;53.088;8.850;2023-08-30T00:38:28;10.27;;;5.20;;
67162;SDS011;54092;53.088;8.850;2023-08-30T00:40:57;11.13;;;5.00;;
67162;SDS011;54092;53.088;8.850;2023-08-30T00:43:23;9.93;;;5.93;;
67162;SDS011;54092;53.088;8.850;2023-08-30T00:45:48;8.43;;;5.05;;
67162;SDS011;54092;53.088;8.850;2023-08-30T00:48:15;8.63;;;5.05;;
67162;SDS011;54092;53.088;8.850;2023-08-30T00:50:43;10.60;;;4.90;;
67162;SDS011;54092;53.088;8.850;2023-08-30T00:53:09;8.93;;;5.47;;
67162;SDS011;54092;53.088;8.850;2023-08-30T00:55:35;13.13;;;5.28;;
67162;SDS011;54092;53.088;8.850;2023-08-30T00:58:02;8.55;;;5.25;;
67162;SDS011;54092;53.088;8.850;2023-08-30T01:00:31;8.50;;;4.90;;
67162;SDS011;54092;53.088;8.850;2023-08-30T01:02:58;8.10;;;4.90;;
67162;SDS011;54092;53.088;8.850;2023-08-30T01:05:24;9.50;;;5.18;;
67162;SDS011;54092;53.088;8.850;2023-08-30T01:07:50;8.48;;;4.93;;
67162;SDS011;54092;53.088;8.850;2023-08-30T01:10:17;12.57;;;5.32;;
67162;SDS011;54092;53.088;8.850;2023-08-30T01:12:49;9.68;;;5.55;;
67162;SDS011;54092;53.088;8.850;2023-08-30T01:15:18;12.05;;;5.57;;
67162;SDS011;54092;53.088;8.850;2023-08-30T01:17:44;8.93;;;5.82;;
67162;SDS011;54092;53.088;8.850;2023-08-30T01:20:13;9.68;;;5.68;;
67162;SDS011;54092;53.088;8.850;2023-08-30T01:25:46;9.18;;;5.20;;
67162;SDS011;54092;53.088;8.850;2023-08-30T01:28:22;8.48;;;5.28;;
67162;SDS011;54092;53.088;8.850;2023-08-30T01:30:51;9.25;;;5.65;;
67162;SDS011;54092;53.088;8.850;2023-08-30T01:33:22;9.77;;;5.32;;
67162;SDS011;54092;53.088;8.850;2023-08-30T01:35:49;8.65;;;5.82;;
67162;SDS011;54092;53.088;8.850;2023-08-30T01:38:15;10.73;;;5.93;;
67162;SDS011;54092;53.088;8.850;2023-08-30T01:40:42;9.27;;;5.88;;
67162;SDS011;54092;53.088;8.850;2023-08-30T01:43:08;10.40;;;6.55;;
67162;SDS011;54092;53.088;8.850;2023-08-30T01:45:36;10.07;;;5.82;;
67162;SDS011;54092;53.088;8.850;2023-08-30T01:48:07;9.90;;;5.25;;
67162;SDS011;54092;53.088;8.850;2023-08-30T01:50:35;9.98;;;6.55;;
67162;SDS011;54092;53.088;8.850;2023-08-30T01:53:02;9.68;;;6.15;;
67162;SDS011;54092;53.088;8.850;2023-08-30T01:55:28;8.57;;;5.97;;
67162;SDS011;54092;53.088;8.850;2023-08-30T01:57:55;13.27;;;5.88;;
67162;SDS011;54092;53.088;8.850;2023-08-30T02:00:21;11.00;;;6.38;;
67162;SDS011;54092;53.088;8.850;2023-08-30T02:02:47;9.02;;;5.75;;
67162;SDS011;54092;53.088;8.850;2023-08-30T02:05:13;9.95;;;5.90;;
67162;SDS011;54092;53.088;8.850;2023-08-30T02:07:51;9.77;;;5.55;;
67162;SDS011;54092;53.088;8.850;2023-08-30T02:10:41;8.38;;;5.63;;
67162;SDS011;54092;53.088;8.850;2023-08-30T02:13:13;10.20;;;6.28;;
67162;SDS011;54092;53.088;8.850;2023-08-30T02:15:40;9.77;;;5.90;;
67162;SDS011;54092;53.088;8.850;2023-08-30T02:18:07;11.50;;;6.07;;
67162;SDS011;54092;53.088;8.850;2023-08-30T02:20:33;8.68;;;5.90;;
67162;SDS011;54092;53.088;8.850;2023-08-30T02:22:59;9.45;;;6.28;;
67162;SDS011;54092;53.088;8.850;2023-08-30T02:25:25;8.77;;;5.90;;
67162;SDS011;54092;53.088;8.850;2023-08-30T02:27:51;9.38;;;5.85;;
67162;SDS011;54092;53.088;8.850;2023-08-30T02:30:16;11.88;;;6.15;;
67162;SDS011;54092;53.088;8.850;2023-08-30T02:32:42;10.20;;;5.95;;
67162;SDS011;54092;53.088;8.850;2023-08-30T02:35:08;10.07;;;6.13;;
67162;SDS011;54092;53.088;8.850;2023-08-30T02:37:33;10.73;;;5.72;;
67162;SDS011;54092;53.088;8.850;2023-08-30T02:39:59;8.73;;;5.70;;
67162;SDS011;54092;53.088;8.850;2023-08-30T02:42:25;10.65;;;6.03;;
67162;SDS011;54092;53.088;8.850;2023-08-30T02:44:51;9.60;;;6.10;;
67162;SDS011;54092;53.088;8.850;2023-08-30T02:47:17;9.45;;;5.60;;
67162;SDS011;54092;53.088;8.850;2023-08-30T02:49:42;11.63;;;6.25;;
67162;SDS011;54092;53.088;8.850;2023-08-30T02:52:08;9.35;;;6.15;;
67162;SDS011;54092;53.088;8.850;2023-08-30T02:54:34;10.95;;;6.00;;
67162;SDS011;54092;53.088;8.850;2023-08-30T02:56:59;8.98;;;5.88;;
67162;SDS011;54092;53.088;8.850;2023-08-30T02:59:25;10.32;;;6.40;;
67162;SDS011;54092;53.088;8.850;2023-08-30T03:01:50;10.48;;;6.43;;
67162;SDS011;54092;53.088;8.850;2023-08-30T03:04:16;9.20;;;5.82;;
67162;SDS011;54092;53.088;8.850;2023-08-30T03:06:41;11.45;;;6.40;;
67162;SDS011;54092;53.088;8.850;2023-08-30T03:09:07;10.60;;;6.47;;
67162;SDS011;54092;53.088;8.850;2023-08-30T03:11:32;12.20;;;7.40;;
67162;SDS011;54092;53.088;8.850;2023-08-30T03:13:58;10.65;;;6.68;;
67162;SDS011;54092;53.088;8.850;2023-08-30T03:16:24;13.10;;;7.68;;
67162;SDS011;54092;53.088;8.850;2023-08-30T03:18:49;11.82;;;7.35;;
67162;SDS011;54092;53.088;8.850;2023-08-30T03:21:15;10.45;;;6.93;;
67162;SDS011;54092;53.088;8.850;2023-08-30T03:23:41;11.25;;;6.53;;
67162;SDS011;54092;53.088;8.850;2023-08-30T03:26:13;10.90;;;6.50;;
67162;SDS011;54092;53.088;8.850;2023-08-30T03:28:40;12.50;;;7.57;;
67162;SDS011;54092;53.088;8.850;2023-08-30T03:31:25;12.43;;;7.85;;
67162;SDS011;54092;53.088;8.850;2023-08-30T03:33:51;10.02;;;6.78;;
67162;SDS011;54092;53.088;8.850;2023-08-30T03:36:17;12.27;;;7.22;;
67162;SDS011;54092;53.088;8.850;2023-08-30T03:38:43;11.88;;;7.65;;
67162;SDS011;54092;53.088;8.850;2023-08-30T03:41:12;12.77;;;7.78;;
67162;SDS011;54092;53.088;8.850;2023-08-30T03:43:38;14.33;;;8.10;;
67162;SDS011;54092;53.088;8.850;2023-08-30T03:46:04;13.27;;;7.93;;
67162;SDS011;54092;53.088;8.850;2023-08-30T03:48:29;20.67;;;8.93;;
67162;SDS011;54092;53.088;8.850;2023-08-30T03:50:55;12.52;;;8.00;;
67162;SDS011;54092;53.088;8.850;2023-08-30T03:53:22;14.93;;;8.60;;
67162;SDS011;54092;53.088;8.850;2023-08-30T03:55:48;14.45;;;8.18;;
67162;SDS011;54092;53.088;8.850;2023-08-30T03:58:13;12.93;;;8.45;;
67162;SDS011;54092;53.088;8.850;2023-08-30T04:00:39;16.75;;;8.90;;
67162;SDS011;54092;53.088;8.850;2023-08-30T04:03:09;15.70;;;9.23;;
67162;SDS011;54092;53.088;8.850;2023-08-30T04:05:38;16.13;;;9.73;;
67162;SDS011;54092;53.088;8.850;2023-08-30T04:08:04;16.08;;;9.95;;
67162;SDS011;54092;53.088;8.850;2023-08-30T04:10:34;18.17;;;10.15;;
67162;SDS011;54092;53.088;8.850;2023-08-30T04:13:00;18.23;;;10.27;;
67162;SDS011;54092;53.088;8.850;2023-08-30T04:15:26;15.60;;;10.20;;
67162;SDS011;54092;53.088;8.850;2023-08-30T04:17:51;18.63;;;11.07;;
67162;SDS011;54092;53.088;8.850;2023-08-30T04:20:17;14.93;;;10.60;;
67162;SDS011;54092;53.088;8.850;2023-08-30T04:22:43;16.75;;;10.52;;
67162;SDS011;54092;53.088;8.850;2023-08-30T04:25:08;19.20;;;11.30;;
67162;SDS011;54092;53.088;8.850;2023-08-30T04:27:34;18.42;;;11.27;;
67162;SDS011;54092;53.088;8.850;2023-08-30T04:30:01;19.35;;;12.30;;
67162;SDS011;54092;53.088;8.850;2023-08-30T04:32:28;19.98;;;12.55;;
67162;SDS011;54092;53.088;8.850;2023-08-30T04:34:53;21.45;;;12.68;;
67162;SDS011;54092;53.088;8.850;2023-08-30T04:37:19;19.73;;;12.30;;
67162;SDS011;54092;53.088;8.850;2023-08-30T04:39:47;19.00;;;11.18;;
67162;SDS011;54092;53.088;8.850;2023-08-30T04:42:16;23.33;;;12.20;;
67162;SDS011;54092;53.088;8.850;2023-08-30T04:44:41;20.80;;;12.85;;
67162;SDS011;54092;53.088;8.850;2023-08-30T04:47:07;18.13;;;11.50;;
67162;SDS011;54092;53.088;8.850;2023-08-30T04:49:32;19.80;;;12.07;;
67162;SDS011;54092;53.088;8.850;2023-08-30T04:51:58;19.98;;;11.85;;
67162;SDS011;54092;53.088;8.850;2023-08-30T04:54:23;18.85;;;11.40;;
67162;SDS011;54092;53.088;8.850;2023-08-30T04:56:49;20.05;;;13.02;;
67162;SDS011;54092;53.088;8.850;2023-08-30T04:59:16;20.45;;;12.52;;
67162;SDS011;54092;53.088;8.850;2023-08-30T05:01:41;20.70;;;11.98;;
67162;SDS011;54092;53.088;8.850;2023-08-30T05:04:09;19.63;;;12.80;;
67162;SDS011;54092;53.088;8.850;2023-08-30T05:06:35;19.33;;;12.23;;
67162;SDS011;54092;53.088;8.850;2023-08-30T05:09:00;21.77;;;13.00;;
67162;SDS011;54092;53.088;8.850;2023-08-30T05:11:27;19.88;;;11.82;;
67162;SDS011;54092;53.088;8.850;2023-08-30T05:13:53;20.50;;;13.10;;
67162;SDS011;54092;53.088;8.850;2023-08-30T05:16:19;23.35;;;13.75;;
67162;SDS011;54092;53.088;8.850;2023-08-30T05:18:45;22.33;;;12.75;;
67162;SDS011;54092;53.088;8.850;2023-08-30T05:21:12;20.88;;;13.13;;
67162;SDS011;54092;53.088;8.850;2023-08-30T05:23:38;21.75;;;13.18;;
67162;SDS011;54092;53.088;8.850;2023-08-30T05:26:06;21.65;;;12.68;;
67162;SDS011;54092;53.088;8.850;2023-08-30T05:28:37;20.27;;;12.07;;
67162;SDS011;54092;53.088;8.850;2023-08-30T05:31:03;19.85;;;12.98;;
67162;SDS011;54092;53.088;8.850;2023-08-30T05:33:28;21.67;;;12.68;;
67162;SDS011;54092;53.088;8.850;2023-08-30T05:35:54;21.40;;;13.40;;
67162;SDS011;54092;53.088;8.850;2023-08-30T05:38:20;24.42;;;12.70;;
67162;SDS011;54092;53.088;8.850;2023-08-30T05:40:45;20.70;;;12.30;;
67162;SDS011;54092;53.088;8.850;2023-08-30T05:43:11;22.15;;;13.10;;
67162;SDS011;54092;53.088;8.850;2023-08-30T05:45:37;21.38;;;13.00;;
67162;SDS011;54092;53.088;8.850;2023-08-30T05:48:02;21.77;;;12.90;;
67162;SDS011;54092;53.088;8.850;2023-08-30T05:50:28;22.38;;;12.57;;
67162;SDS011;54092;53.088;8.850;2023-08-30T05:52:54;21.45;;;12.88;;
67162;SDS011;54092;53.088;8.850;2023-08-30T05:55:20;19.95;;;11.82;;
67162;SDS011;54092;53.088;8.850;2023-08-30T05:57:45;20.60;;;13.23;;
67162;SDS011;54092;53.088;8.850;2023-08-30T06:00:11;21.35;;;12.75;;
67162;SDS011;54092;53.088;8.850;2023-08-30T06:02:38;20.50;;;13.10;;
67162;SDS011;54092;53.088;8.850;2023-08-30T06:05:03;24.58;;;13.43;;
67162;SDS011;54092;53.088;8.850;2023-08-30T06:07:29;24.42;;;14.05;;
67162;SDS011;54092;53.088;8.850;2023-08-30T06:09:55;20.27;;;12.65;;
67162;SDS011;54092;53.088;8.850;2023-08-30T06:12:20;24.38;;;13.32;;
67162;SDS011;54092;53.088;8.850;2023-08-30T06:14:46;23.92;;;13.65;;
67162;SDS011;54092;53.088;8.850;2023-08-30T06:17:16;23.40;;;14.23;;
67162;SDS011;54092;53.088;8.850;2023-08-30T06:19:42;23.02;;;13.43;;
67162;SDS011;54092;53.088;8.850;2023-08-30T06:22:08;22.13;;;14.40;;
67162;SDS011;54092;53.088;8.850;2023-08-30T06:24:33;23.13;;;13.40;;
67162;SDS011;54092;53.088;8.850;2023-08-30T06:26:59;22.83;;;12.35;;
67162;SDS011;54092;53.088;8.850;2023-08-30T06:29:25;21.08;;;13.25;;
67162;SDS011;54092;53.088;8.850;2023-08-30T06:31:50;22.50;;;13.18;;
67162;SDS011;54092;53.088;8.850;2023-08-30T06:34:16;24.77;;;13.75;;
67162;SDS011;54092;53.088;8.850;2023-08-30T06:36:41;18.60;;;12.85;;
67162;SDS011;54092;53.088;8.850;2023-08-30T06:39:07;20.15;;;12.35;;
67162;SDS011;54092;53.088;8.850;2023-08-30T06:41:32;20.95;;;13.15;;
67162;SDS011;54092;53.088;8.850;2023-08-30T06:43:58;22.27;;;13.45;;
67162;SDS011;54092;53.088;8.850;2023-08-30T06:46:24;22.73;;;13.35;;
67162;SDS011;54092;53.088;8.850;2023-08-30T06:48:49;22.40;;;13.27;;
67162;SDS011;54092;53.088;8.850;2023-08-30T06:51:14;20.48;;;13.63;;
67162;SDS011;54092;53.088;8.850;2023-08-30T06:53:40;22.15;;;12.88;;
67162;SDS011;54092;53.088;8.850;2023-08-30T06:56:05;21.35;;;12.60;;
67162;SDS011;54092;53.088;8.850;2023-08-30T06:58:31;20.70;;;13.13;;
67162;SDS011;54092;53.088;8.850;2023-08-30T07:00:57;21.15;;;13.85;;
67162;SDS011;54092;53.088;8.850;2023-08-30T07:03:23;22.35;;;13.02;;
67162;SDS011;54092;53.088;8.850;2023-08-30T07:05:50;19.90;;;13.18;;
67162;SDS011;54092;53.088;8.850;2023-08-30T07:08:16;20.20;;;12.48;;
67162;SDS011;54092;53.088;8.850;2023-08-30T07:10:42;19.38;;;12.32;;
67162;SDS011;54092;53.088;8.850;2023-08-30T07:13:08;22.63;;;13.15;;
67162;SDS011;54092;53.088;8.850;2023-08-30T07:15:35;21.00;;;12.27;;
67162;SDS011;54092;53.088;8.850;2023-08-30T07:18:01;20.45;;;12.25;;
67162;SDS011;54092;53.088;8.850;2023-08-30T07:20:28;18.70;;;12.02;;
67162;SDS011;54092;53.088;8.850;2023-08-30T07:22:54;20.42;;;11.90;;
67162;SDS011;54092;53.088;8.850;2023-08-30T07:25:19;20.27;;;11.80;;
67162;SDS011;54092;53.088;8.850;2023-08-30T07:27:45;20.90;;;11.43;;
67162;SDS011;54092;53.088;8.850;2023-08-30T07:30:11;18.50;;;11.57;;
67162;SDS011;54092;53.088;8.850;2023-08-30T07:32:36;17.83;;;10.95;;
67162;SDS011;54092;53.088;8.850;2023-08-30T07:35:03;19.63;;;11.30;;
67162;SDS011;54092;53.088;8.850;2023-08-30T07:37:29;17.58;;;10.80;;
67162;SDS011;54092;53.088;8.850;2023-08-30T07:39:54;20.70;;;12.02;;
67162;SDS011;54092;53.088;8.850;2023-08-30T07:42:20;19.42;;;10.82;;
67162;SDS011;54092;53.088;8.850;2023-08-30T07:44:45;18.67;;;11.13;;
67162;SDS011;54092;53.088;8.850;2023-08-30T07:47:11;18.20;;;10.23;;
67162;SDS011;54092;53.088;8.850;2023-08-30T07:49:37;19.75;;;11.60;;
67162;SDS011;54092;53.088;8.850;2023-08-30T07:52:02;15.60;;;10.68;;
67162;SDS011;54092;53.088;8.850;2023-08-30T07:54:28;20.48;;;10.18;;
67162;SDS011;54092;53.088;8.850;2023-08-30T07:56:54;17.17;;;10.10;;
67162;SDS011;54092;53.088;8.850;2023-08-30T07:59:20;17.02;;;9.23;;
67162;SDS011;54092;53.088;8.850;2023-08-30T08:01:46;15.73;;;8.65;;
67162;SDS011;54092;53.088;8.850;2023-08-30T08:04:11;15.35;;;9.32;;
67162;SDS011;54092;53.088;8.850;2023-08-30T08:06:37;13.27;;;8.40;;
67162;SDS011;54092;53.088;8.850;2023-08-30T08:09:02;16.25;;;7.35;;
67162;SDS011;54092;53.088;8.850;2023-08-30T08:11:28;11.15;;;7.10;;
67162;SDS011;54092;53.088;8.850;2023-08-30T08:13:54;15.15;;;6.75;;
67162;SDS011;54092;53.088;8.850;2023-08-30T08:16:19;13.15;;;7.25;;
67162;SDS011;54092;53.088;8.850;2023-08-30T08:18:45;12.65;;;7.85;;
67162;SDS011;54092;53.088;8.850;2023-08-30T08:21:11;11.75;;;7.50;;
67162;SDS011;54092;53.088;8.850;2023-08-30T08:23:36;12.23;;;7.82;;
67162;SDS011;54092;53.088;8.850;2023-08-30T08:26:02;12.25;;;7.68;;
67162;SDS011;54092;53.088;8.850;2023-08-30T08:28:28;14.45;;;7.05;;
67162;SDS011;54092;53.088;8.850;2023-08-30T08:30:53;13.13;;;7.53;;
67162;SDS011;54092;53.088;8.850;2023-08-30T08:33:19;13.73;;;8.25;;
67162;SDS011;54092;53.088;8.850;2023-08-30T08:35:48;14.10;;;6.85;;
67162;SDS011;54092;53.088;8.850;2023-08-30T08:38:14;15.93;;;7.95;;
67162;SDS011;54092;53.088;8.850;2023-08-30T08:40:40;13.57;;;7.03;;
67162;SDS011;54092;53.088;8.850;2023-08-30T08:43:05;9.95;;;6.53;;
67162;SDS011;54092;53.088;8.850;2023-08-30T08:45:34;11.18;;;6.57;;
67162;SDS011;54092;53.088;8.850;2023-08-30T08:48:03;12.32;;;7.00;;
67162;SDS011;54092;53.088;8.850;2023-08-30T08:50:30;10.68;;;7.20;;
67162;SDS011;54092;53.088;8.850;2023-08-30T08:52:59;10.95;;;6.30;;
67162;SDS011;54092;53.088;8.850;2023-08-30T08:55:26;11.02;;;6.20;;
67162;SDS011;54092;53.088;8.850;2023-08-30T08:57:55;10.23;;;6.50;;
67162;SDS011;54092;53.088;8.850;2023-08-30T09:00:22;11.25;;;6.78;;
67162;SDS011;54092;53.088;8.850;2023-08-30T09:02:48;10.10;;;6.22;;
67162;SDS011;54092;53.088;8.850;2023-08-30T09:05:16;11.05;;;6.72;;
67162;SDS011;54092;53.088;8.850;2023-08-30T09:07:43;9.85;;;5.65;;
67162;SDS011;54092;53.088;8.850;2023-08-30T09:10:10;13.07;;;6.32;;
67162;SDS011;54092;53.088;8.850;2023-08-30T09:12:35;11.50;;;5.65;;
67162;SDS011;54092;53.088;8.850;2023-08-30T09:15:01;9.20;;;5.35;;
67162;SDS011;54092;53.088;8.850;2023-08-30T09:17:36;12.00;;;5.70;;
67162;SDS011;54092;53.088;8.850;2023-08-30T09:20:09;11.23;;;5.60;;
67162;SDS011;54092;53.088;8.850;2023-08-30T09:22:37;11.57;;;5.30;;
67162;SDS011;54092;53.088;8.850;2023-08-30T09:25:08;11.13;;;5.55;;
67162;SDS011;54092;53.088;8.850;2023-08-30T09:27:34;9.15;;;5.30;;
67162;SDS011;54092;53.088;8.850;2023-08-30T09:30:01;9.13;;;5.43;;
67162;SDS011;54092;53.088;8.850;2023-08-30T09:32:29;8.30;;;5.27;;
67162;SDS011;54092;53.088;8.850;2023-08-30T09:34:54;10.52;;;5.85;;
67162;SDS011;54092;53.088;8.850;2023-08-30T09:37:23;10.38;;;5.18;;
67162;SDS011;54092;53.088;8.850;2023-08-30T09:39:49;10.40;;;5.63;;
67162;SDS011;54092;53.088;8.850;2023-08-30T09:42:16;9.65;;;5.70;;
67162;SDS011;54092;53.088;8.850;2023-08-30T09:44:42;10.85;;;6.15;;
67162;SDS011;54092;53.088;8.850;2023-08-30T09:47:08;10.77;;;5.93;;
67162;SDS011;54092;53.088;8.850;2023-08-30T09:49:43;9.52;;;5.43;;
67162;SDS011;54092;53.088;8.850;2023-08-30T09:52:10;12.82;;;7.47;;
67162;SDS011;54092;53.088;8.850;2023-08-30T09:54:39;11.35;;;6.72;;
67162;SDS011;54092;53.088;8.850;2023-08-30T09:57:08;11.20;;;6.88;;
67162;SDS011;54092;53.088;8.850;2023-08-30T09:59:35;14.27;;;7.57;;
67162;SDS011;54092;53.088;8.850;2023-08-30T10:02:01;14.35;;;7.53;;
67162;SDS011;54092;53.088;8.850;2023-08-30T10:04:27;13.48;;;8.07;;
67162;SDS011;54092;53.088;8.850;2023-08-30T10:06:53;14.68;;;9.00;;
67162;SDS011;54092;53.088;8.850;2023-08-30T10:09:22;14.25;;;8.57;;
67162;SDS011;54092;53.088;8.850;2023-08-30T10:11:48;17.30;;;8.77;;
67162;SDS011;54092;53.088;8.850;2023-08-30T10:14:15;17.15;;;8.98;;
67162;SDS011;54092;53.088;8.850;2023-08-30T10:16:45;15.85;;;9.55;;
67162;SDS011;54092;53.088;8.850;2023-08-30T10:19:21;15.50;;;8.23;;
67162;SDS011;54092;53.088;8.850;2023-08-30T10:21:53;18.08;;;8.90;;
67162;SDS011;54092;53.088;8.850;2023-08-30T10:24:21;18.83;;;8.98;;
67162;SDS011;54092;53.088;8.850;2023-08-30T10:26:49;21.45;;;10.68;;
67162;SDS011;54092;53.088;8.850;2023-08-30T10:29:15;16.45;;;9.00;;
67162;SDS011;54092;53.088;8.850;2023-08-30T10:31:42;16.38;;;8.90;;
67162;SDS011;54092;53.088;8.850;2023-08-30T10:34:12;17.13;;;9.20;;
67162;SDS011;54092;53.088;8.850;2023-08-30T10:36:41;16.52;;;9.35;;
67162;SDS011;54092;53.088;8.850;2023-08-30T10:39:11;14.98;;;8.55;;
67162;SDS011;54092;53.088;8.850;2023-08-30T10:41:37;17.30;;;8.68;;
67162;SDS011;54092;53.088;8.850;2023-08-30T10:44:03;16.60;;;8.77;;
67162;SDS011;54092;53.088;8.850;2023-08-30T10:46:32;16.85;;;9.40;;
67162;SDS011;54092;53.088;8.850;2023-08-30T10:49:09;16.52;;;9.63;;
67162;SDS011;54092;53.088;8.850;2023-08-30T10:51:37;15.52;;;9.05;;
67162;SDS011;54092;53.088;8.850;2023-08-30T10:56:35;19.73;;;9.02;;
67162;SDS011;54092;53.088;8.850;2023-08-30T10:59:15;15.18;;;8.48;;
67162;SDS011;54092;53.088;8.850;2023-08-30T11:01:47;17.58;;;8.23;;
67162;SDS011;54092;53.088;8.850;2023-08-30T11:04:15;14.73;;;7.68;;
67162;SDS011;54092;53.088;8.850;2023-08-30T11:06:45;14.13;;;7.50;;
67162;SDS011;54092;53.088;8.850;2023-08-30T11:09:15;15.60;;;8.60;;
67162;SDS011;54092;53.088;8.850;2023-08-30T11:11:45;14.23;;;8.35;;
67162;SDS011;54092;53.088;8.850;2023-08-30T11:14:11;14.00;;;8.50;;
67162;SDS011;54092;53.088;8.850;2023-08-30T11:16:38;14.13;;;8.88;;
67162;SDS011;54092;53.088;8.850;2023-08-30T11:19:04;15.60;;;9.05;;
67162;SDS011;54092;53.088;8.850;2023-08-30T11:21:31;14.20;;;7.85;;
67162;SDS011;54092;53.088;8.850;2023-08-30T11:23:58;13.00;;;7.75;;
67162;SDS011;54092;53.088;8.850;2023-08-30T11:26:23;14.10;;;7.70;;
67162;SDS011;54092;53.088;8.850;2023-08-30T11:28:49;14.88;;;8.10;;
67162;SDS011;54092;53.088;8.850;2023-08-30T11:31:26;14.52;;;8.85;;
67162;SDS011;54092;53.088;8.850;2023-08-30T11:36:20;14.15;;;8.73;;
67162;SDS011;54092;53.088;8.850;2023-08-30T11:38:47;16.10;;;8.70;;
67162;SDS011;54092;53.088;8.850;2023-08-30T11:41:14;13.48;;;8.38;;
67162;SDS011;54092;53.088;8.850;2023-08-30T11:43:39;13.38;;;8.18;;
67162;SDS011;54092;53.088;8.850;2023-08-30T11:46:05;14.90;;;9.05;;
67162;SDS011;54092;53.088;8.850;2023-08-30T11:48:31;14.20;;;8.05;;
67162;SDS011;54092;53.088;8.850;2023-08-30T11:50:57;16.02;;;7.85;;
67162;SDS011;54092;53.088;8.850;2023-08-30T11:53:23;12.57;;;8.07;;
67162;SDS011;54092;53.088;8.850;2023-08-30T11:55:50;13.48;;;9.07;;
67162;SDS011;54092;53.088;8.850;2023-08-30T11:58:17;13.52;;;7.72;;
67162;SDS011;54092;53.088;8.850;2023-08-30T12:10:48;15.40;;;9.25;;
67162;SDS011;54092;53.088;8.850;2023-08-30T12:13:23;16.77;;;11.85;;
67162;SDS011;54092;53.088;8.850;2023-08-30T12:15:54;15.13;;;9.13;;
67162;SDS011;54092;53.088;8.850;2023-08-30T12:18:25;14.70;;;8.38;;
67162;SDS011;54092;53.088;8.850;2023-08-30T12:20:55;14.70;;;9.05;;
67162;SDS011;54092;53.088;8.850;2023-08-30T12:23:23;13.23;;;7.63;;
67162;SDS011;54092;53.088;8.850;2023-08-30T12:26:06;14.38;;;8.57;;
67162;SDS011;54092;53.088;8.850;2023-08-30T12:28:34;12.15;;;7.38;;
67162;SDS011;54092;53.088;8.850;2023-08-30T12:31:09;13.63;;;7.35;;
67162;SDS011;54092;53.088;8.850;2023-08-30T12:33:35;15.90;;;7.45;;
67162;SDS011;54092;53.088;8.850;2023-08-30T12:36:02;12.70;;;7.75;;
67162;SDS011;54092;53.088;8.850;2023-08-30T12:38:29;15.80;;;6.78;;
67162;SDS011;54092;53.088;8.850;2023-08-30T12:40:55;13.63;;;7.03;;
67162;SDS011;54092;53.088;8.850;2023-08-30T12:43:21;18.90;;;7.30;;
67162;SDS011;54092;53.088;8.850;2023-08-30T12:45:48;12.35;;;6.65;;
67162;SDS011;54092;53.088;8.850;2023-08-30T12:48:15;12.20;;;6.70;;
67162;SDS011;54092;53.088;8.850;2023-08-30T12:50:43;12.10;;;7.15;;
67162;SDS011;54092;53.088;8.850;2023-08-30T12:53:10;15.02;;;6.15;;
67162;SDS011;54092;53.088;8.850;2023-08-30T12:55:36;19.05;;;7.43;;
67162;SDS011;54092;53.088;8.850;2023-08-30T12:58:05;13.40;;;7.20;;
67162;SDS011;54092;53.088;8.850;2023-08-30T13:00:31;9.98;;;6.43;;
67162;SDS011;54092;53.088;8.850;2023-08-30T13:02:58;11.52;;;7.05;;
67162;SDS011;54092;53.088;8.850;2023-08-30T13:05:23;11.25;;;6.97;;
67162;SDS011;54092;53.088;8.850;2023-08-30T13:07:49;11.57;;;7.15;;
67162;SDS011;54092;53.088;8.850;2023-08-30T13:10:15;12.32;;;7.60;;
67162;SDS011;54092;53.088;8.850;2023-08-30T13:12:41;13.20;;;7.57;;
67162;SDS011;54092;53.088;8.850;2023-08-30T13:15:07;14.43;;;8.05;;
67162;SDS011;54092;53.088;8.850;2023-08-30T13:17:33;14.45;;;8.30;;
67162;SDS011;54092;53.088;8.850;2023-08-30T13:19:59;13.35;;;8.65;;
67162;SDS011;54092;53.088;8.850;2023-08-30T13:22:26;15.48;;;8.93;;
67162;SDS011;54092;53.088;8.850;2023-08-30T13:24:51;14.68;;;8.85;;
67162;SDS011;54092;53.088;8.850;2023-08-30T13:27:17;14.32;;;8.52;;
67162;SDS011;54092;53.088;8.850;2023-08-30T13:29:43;13.88;;;8.95;;
67162;SDS011;54092;53.088;8.850;2023-08-30T13:32:09;16.90;;;8.98;;
67162;SDS011;54092;53.088;8.850;2023-08-30T13:34:34;16.17;;;9.15;;
67162;SDS011;54092;53.088;8.850;2023-08-30T13:37:00;14.35;;;8.55;;
67162;SDS011;54092;53.088;8.850;2023-08-30T13:39:26;16.70;;;8.88;;
67162;SDS011;54092;53.088;8.850;2023-08-30T13:41:51;15.35;;;8.35;;
67162;SDS011;54092;53.088;8.850;2023-08-30T13:44:17;18.48;;;9.40;;
67162;SDS011;54092;53.088;8.850;2023-08-30T13:46:43;16.75;;;9.50;;
67162;SDS011;54092;53.088;8.850;2023-08-30T13:49:09;16.55;;;9.00;;
67162;SDS011;54092;53.088;8.850;2023-08-30T13:51:35;16.95;;;9.27;;
67162;SDS011;54092;53.088;8.850;2023-08-30T13:54:01;14.90;;;9.80;;
67162;SDS011;54092;53.088;8.850;2023-08-30T13:56:27;18.83;;;9.70;;
67162;SDS011;54092;53.088;8.850;2023-08-30T13:58:52;15.95;;;9.43;;
67162;SDS011;54092;53.088;8.850;2023-08-30T14:01:18;16.15;;;9.13;;
67162;SDS011;54092;53.088;8.850;2023-08-30T14:03:44;19.42;;;9.60;;
67162;SDS011;54092;53.088;8.850;2023-08-30T14:06:09;16.08;;;9.27;;
67162;SDS011;54092;53.088;8.850;2023-08-30T14:08:35;15.38;;;8.80;;
67162;SDS011;54092;53.088;8.850;2023-08-30T14:11:01;18.15;;;9.32;;
67162;SDS011;54092;53.088;8.850;2023-08-30T14:13:26;13.98;;;8.75;;
67162;SDS011;54092;53.088;8.850;2023-08-30T14:16:07;16.55;;;9.48;;
67162;SDS011;54092;53.088;8.850;2023-08-30T14:18:33;17.13;;;9.63;;
67162;SDS011;54092;53.088;8.850;2023-08-30T14:20:59;18.50;;;9.50;;
67162;SDS011;54092;53.088;8.850;2023-08-30T14:23:25;17.35;;;9.85;;
67162;SDS011;54092;53.088;8.850;2023-08-30T14:26:04;16.00;;;9.30;;
67162;SDS011;54092;53.088;8.850;2023-08-30T14:28:34;17.35;;;10.18;;
67162;SDS011;54092;53.088;8.850;2023-08-30T14:31:01;19.52;;;10.43;;
67162;SDS011;54092;53.088;8.850;2023-08-30T14:33:28;20.20;;;10.15;;
67162;SDS011;54092;53.088;8.850;2023-08-30T14:35:54;19.10;;;11.15;;
67162;SDS011;54092;53.088;8.850;2023-08-30T14:38:21;23.42;;;11.88;;
67162;SDS011;54092;53.088;8.850;2023-08-30T14:40:59;18.50;;;11.95;;
67162;SDS011;54092;53.088;8.850;2023-08-30T14:43:25;22.27;;;12.23;;
67162;SDS011;54092;53.088;8.850;2023-08-30T14:46:02;19.95;;;12.18;;
67162;SDS011;54092;53.088;8.850;2023-08-30T14:48:29;21.88;;;11.90;;
67162;SDS011;54092;53.088;8.850;2023-08-30T14:50:57;20.58;;;11.98;;